Time;durP1;ratioP1;P1;durP2;ratioP2;P2;SDS_P1;SDS_P2;PMS_P1;PMS_P2;Temp;Humidity;BMP_temperature;BMP_pressure;BME280_temperature;BME280_humidity;BME280_pressure;Samples;Min_cycle;Max_cycle;Signal;HPM_P1;HPM_P2
2023/08/17 00:01:33;;;;;;;7.90;6.00;;;;;;;24.27;57.35;101119.05;105043;1264;306269;-55
2023/08/17 00:17:08;;;;;;;;;;;;;;;24.30;58.64;101119.90;102907;1285;604615;-57
2023/08/17 00:19:35;;;;;;;10.20;6.50;;;;;;;24.72;58.13;101122.05;104269;1274;112933;-51
2023/08/17 00:22:03;;;;;;;9.10;6.40;;;;;;;24.63;58.19;101125.34;104587;1271;59253;-53
2023/08/17 00:24:31;;;;;;;7.80;6.20;;;;;;;24.54;58.34;101124.61;104611;1271;63990;-52
2023/08/17 00:26:58;;;;;;;9.80;6.10;;;;;;;24.50;58.46;101125.31;104702;1271;61377;-54
2023/08/17 00:29:26;;;;;;;7.40;6.00;;;;;;;24.46;58.48;101124.37;104604;1272;63728;-52
2023/08/17 00:31:56;;;;;;;10.80;6.40;;;;;;;24.39;58.52;101128.70;104398;1272;59271;-53
2023/08/17 00:34:24;;;;;;;11.00;7.00;;;;;;;24.29;58.60;101132.94;104497;1267;59756;-52
2023/08/17 00:36:52;;;;;;;8.60;6.70;;;;;;;24.19;58.55;101131.73;104420;1271;62173;-52
2023/08/17 00:39:19;;;;;;;9.10;6.80;;;;;;;24.10;58.69;101134.32;104583;1267;61655;-53
2023/08/17 00:41:47;;;;;;;9.20;7.40;;;;;;;24.03;58.90;101140.05;104500;1269;63824;-52
2023/08/17 00:44:15;;;;;;;7.60;5.70;;;;;;;23.95;59.13;101134.92;104489;1269;59704;-55
2023/08/17 00:46:42;;;;;;;8.10;6.40;;;;;;;23.92;59.16;101132.06;104624;1267;59773;-53
2023/08/17 00:49:10;;;;;;;8.20;6.70;;;;;;;23.92;58.96;101129.73;104239;1266;64075;-53
2023/08/17 00:51:38;;;;;;;9.80;7.20;;;;;;;23.90;58.88;101135.41;104541;1274;60197;-52
2023/08/17 00:54:05;;;;;;;12.60;7.20;;;;;;;23.85;58.84;101133.02;105397;1262;63678;-53
2023/08/17 00:56:33;;;;;;;9.20;7.10;;;;;;;23.80;59.05;101133.56;105240;1256;59672;-53
2023/08/17 00:59:00;;;;;;;8.20;6.70;;;;;;;23.75;58.77;101136.57;105234;1260;59650;-53
2023/08/17 01:01:28;;;;;;;12.70;7.50;;;;;;;23.68;58.54;101140.42;105171;1262;64125;-53
2023/08/17 01:03:55;;;;;;;9.50;6.80;;;;;;;23.61;58.60;101135.63;105212;1267;61569;-51
2023/08/17 01:06:23;;;;;;;12.10;7.20;;;;;;;23.59;58.55;101136.77;105160;1260;62524;-52
2023/08/17 01:08:50;;;;;;;9.30;7.10;;;;;;;23.59;58.62;101134.09;105370;1257;59682;-53
2023/08/17 01:11:24;;;;;;;10.40;7.00;;;;;;;23.55;58.44;101133.90;105298;1255;59664;-54
2023/08/17 01:13:57;;;;;;;11.40;7.50;;;;;;;23.51;58.67;101132.64;105370;1255;64162;-55
2023/08/17 01:16:27;;;;;;;10.30;7.70;;;;;;;23.49;58.76;101132.83;105401;1261;60380;-54
2023/08/17 01:18:55;;;;;;;9.20;7.20;;;;;;;23.45;58.88;101133.28;105366;1260;64229;-54
2023/08/17 01:21:24;;;;;;;10.40;7.60;;;;;;;23.37;59.19;101136.37;105253;1258;59744;-52
2023/08/17 01:23:52;;;;;;;8.80;7.20;;;;;;;23.33;59.48;101137.56;105127;1254;59762;-52
2023/08/17 01:26:19;;;;;;;10.20;7.20;;;;;;;23.31;59.56;101136.95;105160;1255;62812;-53
2023/08/17 01:28:47;;;;;;;10.80;7.90;;;;;;;23.29;59.52;101137.56;105428;1259;61553;-54
2023/08/17 01:31:20;;;;;;;8.60;6.90;;;;;;;23.27;59.76;101138.16;105222;1261;63696;-55
2023/08/17 01:33:52;;;;;;;9.80;8.30;;;;;;;23.24;59.83;101138.66;105081;1262;59718;-56
2023/08/17 01:36:30;;;;;;;9.20;7.30;;;;;;;23.21;59.99;101146.88;105942;1256;59589;-55
2023/08/17 01:38:57;;;;;;;9.50;7.70;;;;;;;23.17;60.14;101146.48;105329;1263;64021;-56
2023/08/17 01:41:25;;;;;;;9.40;7.70;;;;;;;23.12;60.24;101145.45;105200;1260;60253;-54
2023/08/17 01:43:53;;;;;;;12.00;7.80;;;;;;;23.10;60.18;101143.60;105218;1259;63726;-54
2023/08/17 01:46:21;;;;;;;11.40;7.40;;;;;;;23.12;60.29;101145.46;105354;1257;59627;-55
2023/08/17 01:48:49;;;;;;;9.60;7.90;;;;;;;23.17;60.08;101146.14;105319;1257;60397;-56
2023/08/17 01:51:19;;;;;;;9.50;7.30;;;;;;;23.19;59.82;101146.20;105212;1260;64164;-57
2023/08/17 01:53:47;;;;;;;10.50;7.00;;;;;;;23.18;59.75;101145.27;106025;1259;61414;-55
2023/08/17 01:56:15;;;;;;;8.70;7.40;;;;;;;23.16;59.63;101141.53;105255;1258;63693;-56
2023/08/17 01:58:42;;;;;;;9.50;7.70;;;;;;;23.11;59.73;101144.94;105238;1263;59733;-56
2023/08/17 02:01:10;;;;;;;10.20;7.60;;;;;;;23.04;59.87;101144.63;105275;1260;59567;-55
2023/08/17 02:03:38;;;;;;;9.30;7.10;;;;;;;23.00;60.02;101145.48;105229;1259;62954;-55
2023/08/17 02:06:05;;;;;;;10.40;7.80;;;;;;;23.00;59.97;101148.48;105240;1265;61377;-56
2023/08/17 02:08:33;;;;;;;10.30;7.40;;;;;;;23.00;60.04;101149.23;105286;1261;63789;-55
2023/08/17 02:11:01;;;;;;;9.10;6.90;;;;;;;23.00;59.88;101151.17;105495;1255;59622;-55
2023/08/17 02:13:29;;;;;;;9.50;7.40;;;;;;;22.99;59.81;101151.33;105276;1257;59553;-49
2023/08/17 02:16:03;;;;;;;10.90;7.70;;;;;;;22.95;59.93;101151.06;105186;1257;64127;-55
2023/08/17 02:18:33;;;;;;;10.30;7.50;;;;;;;22.91;59.93;101154.44;105122;1255;61490;-54
2023/08/17 02:21:00;;;;;;;12.40;8.10;;;;;;;22.86;60.11;101153.12;105102;1257;62520;-54
2023/08/17 02:23:28;;;;;;;9.10;7.40;;;;;;;22.84;60.44;101149.75;105248;1257;59772;-55
2023/08/17 02:25:55;;;;;;;9.50;6.80;;;;;;;22.85;60.42;101151.15;105141;1260;59570;-54
2023/08/17 02:28:23;;;;;;;10.70;8.10;;;;;;;22.83;60.55;101150.73;105294;1254;64053;-54
2023/08/17 02:30:55;;;;;;;10.10;7.80;;;;;;;22.81;60.54;101154.14;105300;1255;61413;-53
2023/08/17 02:33:23;;;;;;;13.60;7.90;;;;;;;22.77;60.60;101153.58;105350;1260;62485;-54
2023/08/17 02:35:51;;;;;;;10.90;7.60;;;;;;;22.73;60.82;101156.11;105185;1255;59710;-55
2023/08/17 02:38:18;;;;;;;9.20;7.70;;;;;;;22.68;61.17;101158.81;106510;1257;59633;-54
2023/08/17 02:40:46;;;;;;;9.50;6.60;;;;;;;22.66;61.42;101159.10;105202;1259;64195;-54
2023/08/17 02:43:13;;;;;;;14.90;7.70;;;;;;;22.63;61.38;101160.80;105253;1260;60114;-54
2023/08/17 02:45:40;;;;;;;9.60;7.90;;;;;;;22.61;61.53;101159.77;105270;1261;63675;-54
2023/08/17 02:48:08;;;;;;;9.60;8.10;;;;;;;22.60;61.65;101160.14;105163;1257;59715;-55
2023/08/17 02:50:35;;;;;;;13.20;8.30;;;;;;;22.58;61.77;101161.77;105293;1260;59703;-55
2023/08/17 02:53:03;;;;;;;10.40;7.70;;;;;;;22.55;61.99;101163.36;105191;1261;64091;-55
2023/08/17 02:55:31;;;;;;;10.20;8.10;;;;;;;22.54;62.14;101161.16;105104;1254;61371;-55
2023/08/17 02:57:58;;;;;;;11.00;7.10;;;;;;;22.52;62.01;101164.34;105196;1260;62497;-57
2023/08/17 03:00:25;;;;;;;13.20;8.20;;;;;;;22.52;62.12;101160.75;105203;1260;60902;-50
2023/08/17 03:02:53;;;;;;;9.40;7.40;;;;;;;22.53;62.09;101160.85;105218;1258;59678;-50
2023/08/17 03:05:21;;;;;;;12.60;8.20;;;;;;;22.51;62.04;101165.98;105161;1255;64008;-49
2023/08/17 03:07:49;;;;;;;9.80;8.20;;;;;;;22.49;62.34;101167.91;105192;1260;60921;-50
2023/08/17 03:10:16;;;;;;;10.80;7.80;;;;;;;22.46;62.51;101169.15;105173;1256;62481;-49
2023/08/17 03:12:45;;;;;;;9.00;7.80;;;;;;;22.43;62.76;101168.50;105485;1257;59744;-48
2023/08/17 03:15:13;;;;;;;12.10;8.10;;;;;;;22.46;63.13;101168.89;105210;1262;59751;-48
2023/08/17 03:17:41;;;;;;;10.90;8.60;;;;;;;22.50;63.10;101167.54;105189;1257;62907;-55
2023/08/17 03:20:10;;;;;;;9.30;7.70;;;;;;;22.55;63.18;101167.86;105362;1257;61326;-56
2023/08/17 03:22:37;;;;;;;11.30;8.00;;;;;;;22.57;63.36;101168.71;105867;1254;63762;-54
2023/08/17 03:25:06;;;;;;;10.00;8.10;;;;;;;22.58;63.26;101166.77;105280;1261;60327;-52
2023/08/17 03:27:33;;;;;;;9.80;8.10;;;;;;;22.60;63.30;101168.32;105405;1254;59817;-53
2023/08/17 03:30:01;;;;;;;10.90;8.60;;;;;;;22.65;63.21;101169.41;105175;1254;64269;-52
2023/08/17 03:32:29;;;;;;;8.40;6.90;;;;;;;22.69;63.21;101172.65;105293;1260;61355;-52
2023/08/17 03:34:56;;;;;;;8.70;7.30;;;;;;;22.72;63.09;101173.11;105259;1262;62543;-52
2023/08/17 03:37:24;;;;;;;8.70;7.10;;;;;;;22.76;63.14;101171.27;105209;1258;59840;-51
2023/08/17 03:39:52;;;;;;;8.80;6.70;;;;;;;22.79;63.00;101173.39;105204;1254;59456;-51
2023/08/17 03:42:20;;;;;;;11.10;7.60;;;;;;;22.81;62.80;101169.16;105104;1256;62885;-50
2023/08/17 03:44:48;;;;;;;8.30;5.80;;;;;;;22.85;62.73;101166.80;105238;1254;71203;-52
2023/08/17 03:47:16;;;;;;;8.20;6.30;;;;;;;22.89;62.52;101169.00;105353;1256;63795;-52
2023/08/17 03:49:43;;;;;;;9.50;6.70;;;;;;;22.93;62.20;101169.06;105181;1254;60056;-51
2023/08/17 03:52:10;;;;;;;8.80;7.20;;;;;;;22.96;61.97;101167.73;105288;1258;59577;-52
2023/08/17 03:54:38;;;;;;;9.10;6.40;;;;;;;22.99;61.83;101166.55;105189;1257;64738;-51
2023/08/17 03:57:06;;;;;;;11.30;9.90;;;;;;;23.00;61.65;101165.70;105239;1254;61404;-52
2023/08/17 03:59:33;;;;;;;9.10;7.20;;;;;;;23.03;61.74;101164.42;105207;1254;62437;-52
2023/08/17 04:02:02;;;;;;;13.60;6.90;;;;;;;23.09;61.36;101164.68;105109;1256;59778;-45
2023/08/17 04:04:30;;;;;;;11.50;8.20;;;;;;;23.14;60.75;101164.10;105020;1261;59735;-48
2023/08/17 04:06:57;;;;;;;7.90;6.10;;;;;;;23.16;60.39;101163.79;105093;1260;64043;-49
2023/08/17 04:09:25;;;;;;;8.40;6.70;;;;;;;23.17;60.28;101164.23;104610;1254;63704;-51
2023/08/17 04:11:54;;;;;;;7.30;5.60;;;;;;;23.16;59.82;101165.36;104929;1257;66385;-49
2023/08/17 04:14:22;;;;;;;10.50;6.20;;;;;;;23.16;59.49;101170.73;104823;1260;61615;-51
2023/08/17 04:16:49;;;;;;;7.40;5.80;;;;;;;23.19;59.10;101172.59;104834;1254;59746;-49
2023/08/17 04:19:17;;;;;;;7.90;6.10;;;;;;;23.22;58.83;101168.83;106334;1257;65654;-53
2023/08/17 04:21:44;;;;;;;9.80;6.50;;;;;;;23.24;58.55;101169.51;105076;1257;61373;-50
2023/08/17 04:24:12;;;;;;;7.40;6.10;;;;;;;23.24;58.20;101172.57;105159;1258;63936;-50
2023/08/17 04:26:40;;;;;;;8.40;5.90;;;;;;;23.24;58.02;101172.33;105253;1256;60543;-52
2023/08/17 04:29:08;;;;;;;7.60;5.90;;;;;;;23.24;58.06;101171.58;104970;1254;60755;-53
2023/08/17 04:31:36;;;;;;;8.10;6.40;;;;;;;23.25;58.10;101170.10;104964;1254;64939;-53
2023/08/17 04:34:05;;;;;;;9.10;6.40;;;;;;;23.30;58.17;101168.72;106082;1254;61353;-51
2023/08/17 04:36:33;;;;;;;9.20;5.50;;;;;;;23.37;58.16;101171.86;105120;1257;63682;-49
2023/08/17 04:39:00;;;;;;;10.40;6.60;;;;;;;23.42;58.18;101170.84;104969;1256;62350;-48
2023/08/17 04:41:28;;;;;;;8.30;6.20;;;;;;;23.47;58.33;101169.88;104653;1254;60560;-55
2023/08/17 04:43:56;;;;;;;10.10;7.00;;;;;;;23.51;57.87;101172.81;104785;1262;65052;-55
2023/08/17 04:46:24;;;;;;;8.80;6.10;;;;;;;23.54;57.74;101176.83;104545;1254;62398;-54
2023/08/17 04:48:52;;;;;;;7.30;5.70;;;;;;;23.58;57.63;101178.17;104885;1257;65403;-55
2023/08/17 04:51:21;;;;;;;8.20;6.20;;;;;;;23.59;57.39;101178.67;105128;1260;60563;-53
2023/08/17 04:53:49;;;;;;;7.60;5.60;;;;;;;23.58;57.32;101180.54;105286;1256;60394;-53
2023/08/17 04:56:17;;;;;;;11.00;6.30;;;;;;;23.62;57.23;101178.19;104869;1254;65527;-52
2023/08/17 04:58:44;;;;;;;9.60;6.00;;;;;;;23.68;56.97;101181.06;104666;1254;62110;-53
2023/08/17 05:01:13;;;;;;;8.60;5.90;;;;;;;23.74;56.89;101182.78;104632;1254;63790;-53
2023/08/17 05:03:40;;;;;;;8.70;5.60;;;;;;;23.78;56.55;101179.88;104869;1260;60577;-56
2023/08/17 05:06:08;;;;;;;7.90;6.30;;;;;;;23.80;56.22;101183.36;108861;1255;58687;-54
2023/08/17 05:08:37;;;;;;;11.80;5.90;;;;;;;23.81;56.02;101181.97;108883;1257;64924;-51
2023/08/17 05:11:04;;;;;;;10.10;6.10;;;;;;;23.83;56.01;101180.88;108953;1254;61333;-53
2023/08/17 05:13:31;;;;;;;6.80;5.40;;;;;;;23.84;55.92;101180.35;105466;1257;63803;-54
2023/08/17 05:16:01;;;;;;;7.40;5.40;;;;;;;23.85;55.87;101181.64;105310;1260;60839;-54
2023/08/17 05:18:29;;;;;;;7.10;5.50;;;;;;;23.91;55.77;101180.63;105204;1260;60377;-54
2023/08/17 05:20:57;;;;;;;8.60;5.30;;;;;;;23.98;55.53;101181.85;105238;1256;65320;-49
2023/08/17 05:23:25;;;;;;;8.30;5.90;;;;;;;24.02;55.28;101182.30;104899;1256;61962;-53
2023/08/17 05:25:52;;;;;;;9.00;5.70;;;;;;;24.05;55.43;101182.63;104976;1256;65270;-52
2023/08/17 05:28:20;;;;;;;7.00;5.50;;;;;;;24.08;55.60;101183.59;104993;1257;60578;-49
2023/08/17 05:30:48;;;;;;;10.30;6.40;;;;;;;24.13;55.39;101184.17;109043;1255;58136;-51
2023/08/17 05:33:16;;;;;;;9.40;5.50;;;;;;;24.14;55.04;101180.02;108890;1254;65010;-50
2023/08/17 05:35:43;;;;;;;8.00;6.00;;;;;;;24.15;54.88;101182.25;107667;1256;61524;-54
2023/08/17 05:38:11;;;;;;;7.90;5.60;;;;;;;24.15;54.82;101183.66;105165;1258;63699;-53
2023/08/17 05:40:41;;;;;;;9.60;6.10;;;;;;;24.15;54.90;101186.73;105060;1257;61697;-55
2023/08/17 05:43:08;;;;;;;8.30;6.00;;;;;;;24.21;54.93;101185.41;105005;1254;60502;-52
2023/08/17 05:45:36;;;;;;;8.10;6.10;;;;;;;24.28;55.08;101183.46;105153;1254;65355;-50
2023/08/17 05:48:06;;;;;;;8.30;5.70;;;;;;;24.33;55.26;101183.82;107675;1254;61656;-51
2023/08/17 05:50:34;;;;;;;8.20;5.90;;;;;;;24.36;55.14;101181.11;105153;1259;62656;-51
2023/08/17 05:53:02;;;;;;;8.60;6.20;;;;;;;24.39;55.22;101179.73;105354;1260;61398;-54
2023/08/17 05:55:30;;;;;;;7.80;5.90;;;;;;;24.43;55.26;101173.84;105316;1259;60467;-53
2023/08/17 05:57:57;;;;;;;8.80;6.70;;;;;;;24.48;55.16;101174.55;105245;1257;64970;-56
2023/08/17 06:00:25;;;;;;;8.10;6.20;;;;;;;24.50;54.94;101174.77;105246;1254;60449;-57
2023/08/17 06:02:52;;;;;;;8.70;5.90;;;;;;;24.52;54.70;101176.30;105200;1260;62523;-55
2023/08/17 06:05:25;;;;;;;8.60;5.70;;;;;;;24.58;54.45;101178.16;105013;1254;61401;-55
2023/08/17 06:07:52;;;;;;;10.70;6.00;;;;;;;24.67;54.43;101176.95;104957;1256;60573;-60
2023/08/17 06:10:20;;;;;;;11.70;6.00;;;;;;;24.75;54.30;101174.55;105093;1254;63918;-58
2023/08/17 06:12:48;;;;;;;7.30;5.50;;;;;;;24.81;54.26;101173.27;107594;1256;61298;-58
2023/08/17 06:15:15;;;;;;;6.60;5.10;;;;;;;24.86;53.80;101175.48;105175;1256;63960;-56
2023/08/17 06:17:43;;;;;;;9.10;5.70;;;;;;;24.89;53.80;101176.66;105011;1256;60565;-56
2023/08/17 06:20:12;;;;;;;8.10;5.80;;;;;;;24.94;54.01;101178.59;104828;1260;60484;-56
2023/08/17 06:22:39;;;;;;;10.00;6.20;;;;;;;24.99;54.17;101172.46;109081;1254;64950;-55
2023/08/17 06:25:08;;;;;;;7.40;5.40;;;;;;;25.10;54.17;101170.95;108959;1254;63154;-60
2023/08/17 06:27:35;;;;;;;9.10;5.70;;;;;;;25.21;54.01;101171.48;106509;1260;63868;-54
2023/08/17 06:30:04;;;;;;;8.10;5.20;;;;;;;25.29;53.58;101172.05;106454;1259;60462;-55
2023/08/17 06:32:31;;;;;;;8.60;6.10;;;;;;;25.34;53.20;101175.48;105249;1256;60578;-55
2023/08/17 06:34:59;;;;;;;8.50;5.50;;;;;;;25.39;53.59;101174.09;105189;1256;63744;-54
2023/08/17 06:37:26;;;;;;;9.70;5.60;;;;;;;25.44;53.42;101173.84;105081;1254;61023;-55
2023/08/17 06:39:54;;;;;;;7.90;5.10;;;;;;;25.48;53.10;101174.64;105079;1254;62592;-55
2023/08/17 06:42:22;;;;;;;7.10;5.30;;;;;;;25.52;52.81;101181.66;105120;1256;60649;-55
2023/08/17 06:44:50;;;;;;;9.50;5.30;;;;;;;25.55;52.80;101177.23;105073;1256;60536;-55
2023/08/17 06:47:17;;;;;;;6.00;4.50;;;;;;;25.59;52.48;101175.67;105019;1254;64981;-53
2023/08/17 06:49:45;;;;;;;7.00;4.80;;;;;;;25.63;52.24;101177.16;105029;1254;61380;-53
2023/08/17 06:52:12;;;;;;;7.30;4.80;;;;;;;25.66;52.14;101177.80;105192;1261;63879;-55
2023/08/17 06:54:40;;;;;;;9.00;4.80;;;;;;;25.73;51.94;101174.75;106181;1255;60546;-55
2023/08/17 06:57:07;;;;;;;6.00;4.40;;;;;;;25.81;51.91;101172.08;105172;1259;60432;-56
2023/08/17 06:59:35;;;;;;;9.50;4.50;;;;;;;25.89;51.62;101170.27;105387;1254;64844;-55
2023/08/17 07:02:02;;;;;;;6.00;4.00;;;;;;;25.97;51.25;101172.63;105249;1254;61357;-54
2023/08/17 07:04:31;;;;;;;7.90;4.30;;;;;;;26.03;50.58;101174.49;105255;1254;62661;-54
2023/08/17 07:06:59;;;;;;;7.20;4.10;;;;;;;26.09;50.51;101173.84;105364;1260;60431;-54
2023/08/17 07:09:28;;;;;;;6.00;4.10;;;;;;;26.17;50.31;101174.71;105797;1254;60618;-54
2023/08/17 07:11:55;;;;;;;6.50;4.30;;;;;;;26.22;50.07;101171.89;105210;1258;65503;-56
2023/08/17 07:14:24;;;;;;;6.80;4.50;;;;;;;26.26;50.15;101168.74;105080;1254;61534;-55
2023/08/17 07:16:52;;;;;;;7.40;4.50;;;;;;;26.31;50.01;101168.29;108918;1254;63839;-56
2023/08/17 07:19:19;;;;;;;9.00;4.50;;;;;;;26.37;50.54;101169.61;109030;1254;58354;-56
2023/08/17 07:21:57;;;;;;;7.00;4.50;;;;;;;26.46;50.35;101165.38;109022;1254;58233;-56
2023/08/17 07:24:25;;;;;;;7.20;4.10;;;;;;;26.52;49.42;101164.70;109141;1254;65220;-56
2023/08/17 07:26:52;;;;;;;8.50;3.90;;;;;;;26.56;48.63;101159.50;108911;1255;60130;-55
2023/08/17 07:29:19;;;;;;;12.60;7.30;;;;;;;26.60;48.35;101154.52;109007;1254;62660;-55
2023/08/17 07:31:47;;;;;;;8.30;4.30;;;;;;;26.65;48.47;101155.23;105519;1254;60462;-55
2023/08/17 07:34:15;;;;;;;9.90;4.00;;;;;;;26.72;48.47;101154.98;105231;1260;60410;-56
2023/08/17 07:36:42;;;;;;;5.70;4.40;;;;;;;26.79;48.28;101153.09;105124;1256;75884;-57
2023/08/17 07:39:10;;;;;;;7.30;4.00;;;;;;;26.82;47.68;101154.12;105190;1260;61445;-55
2023/08/17 07:41:37;;;;;;;7.60;4.10;;;;;;;26.85;47.96;101158.10;105193;1254;64255;-56
2023/08/17 07:44:05;;;;;;;6.80;4.00;;;;;;;26.88;48.10;101156.39;105755;1256;60313;-55
2023/08/17 07:46:32;;;;;;;6.00;3.40;;;;;;;26.93;47.50;101155.05;105430;1255;60423;-53
2023/08/17 07:49:00;;;;;;;5.30;3.10;;;;;;;26.98;47.46;101154.81;105222;1260;65033;-55
2023/08/17 07:51:29;;;;;;;6.20;3.50;;;;;;;27.02;47.03;101151.41;105261;1260;60480;-55
2023/08/17 07:53:57;;;;;;;5.40;3.00;;;;;;;27.05;46.49;101152.11;105159;1254;63739;-55
2023/08/17 07:56:25;;;;;;;9.10;3.50;;;;;;;27.08;46.14;101156.32;105189;1260;60369;-54
2023/08/17 07:58:55;;;;;;;7.50;2.80;;;;;;;27.14;46.14;101156.09;105248;1260;61008;-54
2023/08/17 08:01:23;;;;;;;7.40;3.00;;;;;;;27.20;45.90;101157.52;105319;1253;63732;-54
2023/08/17 08:03:51;;;;;;;5.50;2.80;;;;;;;27.24;45.02;101156.21;105247;1257;61683;-55
2023/08/17 08:06:20;;;;;;;5.70;3.00;;;;;;;27.30;44.72;101160.16;105204;1254;62601;-55
2023/08/17 08:08:48;;;;;;;6.40;4.00;;;;;;;27.39;45.06;101160.76;105268;1255;60557;-54
2023/08/17 08:11:15;;;;;;;6.20;2.70;;;;;;;27.48;45.08;101157.29;105139;1256;60556;-55
2023/08/17 08:13:43;;;;;;;7.90;3.00;;;;;;;27.58;44.80;101156.73;105079;1260;64949;-57
2023/08/17 08:16:11;;;;;;;5.40;3.00;;;;;;;27.68;44.71;101159.71;104995;1254;61437;-57
2023/08/17 08:18:38;;;;;;;11.40;2.90;;;;;;;27.76;43.97;101153.79;105011;1256;63841;-54
2023/08/17 08:21:06;;;;;;;7.20;2.60;;;;;;;27.86;43.55;101150.74;105121;1256;60554;-56
2023/08/17 08:23:33;;;;;;;4.50;2.10;;;;;;;27.93;43.28;101150.46;105235;1260;60457;-56
2023/08/17 08:26:01;;;;;;;7.90;2.70;;;;;;;28.00;43.08;101150.71;105250;1260;64890;-57
2023/08/17 08:28:28;;;;;;;5.60;2.90;;;;;;;28.05;42.53;101148.50;105182;1256;61315;-56
2023/08/17 08:31:03;;;;;;;4.80;2.60;;;;;;;28.11;42.39;101148.69;105348;1256;63790;-54
2023/08/17 08:33:30;;;;;;;5.40;2.40;;;;;;;28.18;42.43;101149.89;105090;1260;60557;-54
2023/08/17 08:35:58;;;;;;;7.30;2.90;;;;;;;28.24;42.07;101148.23;105567;1256;60356;-55
2023/08/17 08:38:25;;;;;;;6.20;2.60;;;;;;;28.28;42.01;101146.41;105053;1260;64922;-54
2023/08/17 08:40:53;;;;;;;4.50;2.50;;;;;;;28.34;41.87;101145.23;105184;1256;61411;-54
2023/08/17 08:43:20;;;;;;;4.70;2.80;;;;;;;28.40;41.62;101144.20;104975;1256;63658;-55
2023/08/17 08:45:49;;;;;;;5.50;2.20;;;;;;;28.46;41.54;101143.55;105110;1256;60524;-55
2023/08/17 08:48:18;;;;;;;5.20;2.60;;;;;;;28.50;41.36;101139.97;105029;1260;60455;-54
2023/08/17 08:50:47;;;;;;;5.60;2.70;;;;;;;28.56;41.17;101142.14;104948;1256;64270;-55
2023/08/17 08:53:15;;;;;;;5.90;2.60;;;;;;;28.62;41.70;101144.19;105234;1260;60505;-53
2023/08/17 08:55:55;;;;;;;7.00;2.80;;;;;;;28.66;41.35;101139.55;105379;1256;65193;-53
2023/08/17 08:58:23;;;;;;;4.90;2.30;;;;;;;28.71;40.20;101138.62;105379;1257;60537;-53
2023/08/17 09:00:51;;;;;;;4.40;2.40;;;;;;;28.72;39.88;101136.64;105395;1261;60418;-57
2023/08/17 09:03:20;;;;;;;5.90;2.80;;;;;;;28.71;40.40;101140.58;105240;1254;63647;-57
2023/08/17 09:05:48;;;;;;;7.50;3.00;;;;;;;28.71;41.03;101137.83;105358;1260;60446;-56
2023/08/17 09:08:20;;;;;;;5.90;2.50;;;;;;;28.75;41.25;101133.54;106015;1256;63741;-60
2023/08/17 09:10:48;;;;;;;5.30;2.50;;;;;;;28.82;41.35;101135.20;105375;1258;60488;-58
2023/08/17 09:13:16;;;;;;;6.00;2.90;;;;;;;28.92;41.27;101138.69;105340;1254;60575;-56
2023/08/17 09:15:44;;;;;;;5.80;2.50;;;;;;;29.02;41.08;101135.60;105294;1258;64962;-57
2023/08/17 09:18:11;;;;;;;5.70;2.10;;;;;;;29.08;40.57;101131.77;105196;1254;61305;-57
2023/08/17 09:20:41;;;;;;;6.80;2.50;;;;;;;29.12;40.31;101133.22;105328;1256;63764;-56
2023/08/17 09:23:13;;;;;;;7.60;2.80;;;;;;;29.16;39.99;101131.92;105448;1254;60883;-55
2023/08/17 09:25:41;;;;;;;4.80;2.40;;;;;;;29.19;40.13;101132.41;105251;1260;60422;-55
2023/08/17 09:28:14;;;;;;;5.40;2.60;;;;;;;29.20;39.63;101130.83;105452;1259;64940;-55
2023/08/17 09:30:54;;;;;;;5.20;2.60;;;;;;;29.18;39.46;101129.30;105148;1254;61376;-55
2023/08/17 09:33:23;;;;;;;7.50;2.90;;;;;;;29.17;39.91;101129.59;105149;1256;64175;-54
2023/08/17 09:35:51;;;;;;;5.40;2.50;;;;;;;29.18;39.76;101127.95;105213;1254;60551;-57
2023/08/17 09:38:25;;;;;;;8.70;2.90;;;;;;;29.19;39.25;101127.28;105186;1256;60540;-56
2023/08/17 09:40:54;;;;;;;6.00;2.60;;;;;;;29.20;39.87;101129.27;107436;1257;64960;-55
2023/08/17 09:43:21;;;;;;;7.10;2.60;;;;;;;29.23;39.35;101126.41;105422;1254;61463;-54
2023/08/17 09:45:49;;;;;;;4.90;2.50;;;;;;;29.26;38.98;101126.20;105680;1262;63735;-57
2023/08/17 09:48:17;;;;;;;4.60;2.30;;;;;;;29.32;39.69;101127.36;105377;1254;61661;-55
2023/08/17 09:50:46;;;;;;;5.30;2.50;;;;;;;29.39;39.78;101126.05;107112;1254;60502;-56
2023/08/17 09:53:14;;;;;;;4.10;2.30;;;;;;;29.47;39.68;101124.81;108893;1254;63624;-57
2023/08/17 09:55:43;;;;;;;6.20;2.50;;;;;;;29.54;39.46;101120.84;108964;1256;62434;-56
2023/08/17 09:58:14;;;;;;;5.00;2.30;;;;;;;29.62;39.51;101116.61;108952;1255;63670;-56
2023/08/17 10:00:47;;;;;;;6.40;3.00;;;;;;;29.72;39.29;101110.55;108961;1254;58233;-57
2023/08/17 10:03:19;;;;;;;4.20;2.40;;;;;;;29.79;39.33;101112.83;108868;1256;58227;-58
2023/08/17 10:05:59;;;;;;;7.20;2.70;;;;;;;29.85;39.05;101112.96;108357;1254;64743;-57
2023/08/17 10:08:26;;;;;;;4.50;2.50;;;;;;;29.91;38.74;101106.93;105330;1254;61902;-56
2023/08/17 10:10:54;;;;;;;5.00;2.70;;;;;;;29.99;38.97;101104.47;106320;1256;64229;-55
2023/08/17 10:13:39;;;;;;;4.50;2.10;;;;;;;30.07;38.58;101105.20;105337;1256;60556;-57
2023/08/17 10:16:28;;;;;;;4.90;2.40;;;;;;;30.11;38.24;101102.09;105118;1259;60446;-55
2023/08/17 10:19:15;;;;;;;5.90;2.50;;;;;;;30.11;37.34;101100.72;105203;1253;63669;-56
2023/08/17 10:21:52;;;;;;;4.70;2.10;;;;;;;30.02;38.11;101099.06;105766;1255;60711;-59
2023/08/17 10:24:20;;;;;;;4.60;2.50;;;;;;;29.97;37.93;101097.36;105133;1256;63892;-59
2023/08/17 10:26:47;;;;;;;4.90;2.40;;;;;;;29.91;37.64;101098.85;105304;1260;60408;-56
2023/08/17 10:29:23;;;;;;;6.00;2.10;;;;;;;29.91;38.14;101100.59;105298;1257;60888;-59
2023/08/17 10:31:50;;;;;;;8.60;2.30;;;;;;;29.97;38.93;101098.94;105409;1258;64855;-59
2023/08/17 10:34:18;;;;;;;5.80;2.30;;;;;;;30.04;38.55;101100.49;105286;1256;61396;-59
2023/08/17 10:36:46;;;;;;;6.10;2.40;;;;;;;30.07;38.39;101100.85;105306;1264;63777;-57
2023/08/17 10:39:47;;;;;;;5.90;2.20;;;;;;;30.10;37.80;101097.50;105254;1256;60692;-57
2023/08/17 10:42:14;;;;;;;5.70;2.10;;;;;;;30.16;37.83;101095.58;105372;1260;60553;-56
2023/08/17 10:44:48;;;;;;;9.40;2.60;;;;;;;30.22;37.78;101090.61;105197;1254;64997;-57
2023/08/17 10:47:23;;;;;;;5.60;2.50;;;;;;;30.26;37.60;101091.09;105230;1254;60563;-56
2023/08/17 10:50:22;;;;;;;;;;;;;;;30.28;37.47;101094.88;105243;1257;63745;-53
2023/08/17 10:52:50;;;;;;;5.30;3.00;;;;;;;30.30;37.26;101092.52;108114;1257;58566;-53
2023/08/17 10:55:19;;;;;;;6.30;2.50;;;;;;;30.28;36.42;101091.34;105229;1260;60371;-52
2023/08/17 10:57:47;;;;;;;5.10;2.70;;;;;;;30.26;36.23;101089.55;105368;1254;63706;-54
2023/08/17 11:00:26;;;;;;;4.50;2.70;;;;;;;30.21;36.14;101091.63;105852;1256;60990;-52
2023/08/17 11:03:01;;;;;;;5.30;3.00;;;;;;;30.17;37.04;101086.38;105527;1256;63764;-54
2023/08/17 11:05:47;;;;;;;6.00;3.80;;;;;;;30.16;36.55;101083.00;105532;1256;60624;-53
2023/08/17 11:08:23;;;;;;;8.90;4.50;;;;;;;30.15;36.90;101084.98;105281;1256;60557;-54
2023/08/17 11:11:07;;;;;;;8.90;5.50;;;;;;;30.17;37.09;101086.06;105140;1260;64935;-54
2023/08/17 11:13:36;;;;;;;9.40;5.80;;;;;;;30.27;37.35;101081.05;105171;1256;61617;-55
2023/08/17 11:16:04;;;;;;;10.90;5.70;;;;;;;30.35;37.57;101080.72;105318;1256;63727;-53
2023/08/17 11:18:32;;;;;;;10.10;5.70;;;;;;;30.42;36.86;101081.16;105383;1255;61646;-55
2023/08/17 11:21:04;;;;;;;9.00;5.80;;;;;;;30.48;37.03;101077.04;106125;1255;60504;-52
2023/08/17 11:23:33;;;;;;;8.30;4.30;;;;;;;30.54;36.91;101075.09;105565;1255;65503;-54
2023/08/17 11:26:01;;;;;;;7.40;4.70;;;;;;;30.60;36.73;101076.53;105384;1256;61296;-53
2023/08/17 11:28:40;;;;;;;7.00;4.90;;;;;;;30.66;36.64;101076.92;105054;1260;63917;-53
2023/08/17 11:31:11;;;;;;;7.70;4.60;;;;;;;30.73;36.57;101070.08;105028;1261;60589;-53
2023/08/17 11:33:39;;;;;;;6.20;3.80;;;;;;;30.81;36.47;101068.21;105229;1257;60620;-54
2023/08/17 11:36:08;;;;;;;6.60;3.80;;;;;;;30.88;36.43;101068.74;105916;1257;73198;-54
2023/08/17 11:38:37;;;;;;;6.30;3.10;;;;;;;30.95;36.41;101070.41;105042;1258;60490;-51